Time;durP1;ratioP1;P1;durP2;ratioP2;P2;SDS_P1;SDS_P2;PMS_P1;PMS_P2;Temp;Humidity;BMP_temperature;BMP_pressure;BME280_temperature;BME280_humidity;BME280_pressure;Samples;Min_cycle;Max_cycle;Signal;HPM_P1;HPM_P2
2023/06/15 00:00:21;;;;;;;4.38;2.40;;;;;;;13.38;36.18;95704.91;5019422;28;20041;-69
2023/06/15 00:02:47;;;;;;;3.53;2.65;;;;;;;13.37;36.56;95709.47;5003677;28;20709;-69
2023/06/15 00:05:12;;;;;;;3.05;2.35;;;;;;;13.25;35.93;95710.97;5021416;28;20494;-69
2023/06/15 00:07:38;;;;;;;3.13;2.60;;;;;;;13.24;36.41;95709.34;5021416;28;20034;-69
2023/06/15 00:10:04;;;;;;;3.20;2.90;;;;;;;13.26;35.93;95709.97;5021342;28;20502;-69
2023/06/15 00:12:29;;;;;;;2.50;2.30;;;;;;;13.29;35.94;95706.91;5020934;28;20041;-69
2023/06/15 00:14:56;;;;;;;4.28;2.67;;;;;;;13.29;37.01;95701.53;5020956;28;20736;-69
2023/06/15 00:17:21;;;;;;;4.07;2.75;;;;;;;13.20;36.64;95710.75;5021337;28;20031;-69
2023/06/15 00:19:47;;;;;;;3.20;2.63;;;;;;;13.11;36.12;95710.88;5003392;28;20045;-69
2023/06/15 00:22:15;;;;;;;4.93;2.65;;;;;;;12.99;36.83;95702.53;5021002;28;20490;-70
2023/06/15 00:24:41;;;;;;;3.97;2.83;;;;;;;13.04;36.52;95710.81;5003390;28;20068;-69
2023/06/15 00:27:08;;;;;;;6.13;3.03;;;;;;;13.10;37.43;95714.56;5019862;28;20036;-69
2023/06/15 00:29:34;;;;;;;5.43;2.78;;;;;;;13.10;36.35;95714.56;5019248;28;20037;-69
2023/06/15 00:31:59;;;;;;;3.33;2.60;;;;;;;13.11;37.10;95708.19;5002677;28;20045;-69
2023/06/15 00:34:25;;;;;;;3.45;2.78;;;;;;;13.04;36.83;95710.81;5002806;28;20029;-69
2023/06/15 00:36:50;;;;;;;2.97;2.67;;;;;;;12.99;37.22;95705.19;5021163;28;20029;-69
2023/06/15 00:39:16;;;;;;;5.85;2.78;;;;;;;13.03;37.80;95703.78;5020848;28;20041;-69
2023/06/15 00:41:42;;;;;;;3.63;2.65;;;;;;;12.99;38.05;95707.03;5020844;28;20029;-69
2023/06/15 00:44:07;;;;;;;2.67;2.45;;;;;;;12.96;37.29;95712.75;5020096;28;20322;-69
2023/06/15 00:46:33;;;;;;;5.07;2.95;;;;;;;12.96;37.62;95716.25;5020814;28;20026;-69
2023/06/15 00:48:58;;;;;;;3.88;2.72;;;;;;;12.95;37.53;95717.25;4986432;28;20017;-69
2023/06/15 00:51:23;;;;;;;4.35;2.80;;;;;;;12.92;38.03;95712.31;4985592;28;20034;-69
2023/06/15 00:53:50;;;;;;;4.25;2.60;;;;;;;12.96;37.87;95712.75;5002724;28;20292;-69
2023/06/15 00:56:17;;;;;;;3.03;2.70;;;;;;;12.98;37.56;95706.19;5020132;28;20030;-69
2023/06/15 00:58:43;;;;;;;4.70;2.50;;;;;;;12.89;37.18;95718.03;5001304;28;20029;-69
2023/06/15 01:01:08;;;;;;;4.03;2.80;;;;;;;12.91;38.20;95713.31;4984966;28;20391;-69
2023/06/15 01:03:35;;;;;;;2.92;2.65;;;;;;;12.92;37.43;95721.16;5000749;28;20049;-69
2023/06/15 01:06:01;;;;;;;4.65;3.15;;;;;;;12.87;37.55;95723.56;5019882;28;20037;-69
2023/06/15 01:08:26;;;;;;;3.03;2.47;;;;;;;12.78;38.13;95722.84;5001995;28;20038;-69
2023/06/15 01:10:56;;;;;;;5.55;3.03;;;;;;;12.88;37.72;95727.06;4985510;28;20037;-69
2023/06/15 01:13:21;;;;;;;3.67;2.85;;;;;;;12.70;38.43;95727.47;4987317;28;20691;-69
2023/06/15 01:15:48;;;;;;;3.78;2.72;;;;;;;12.88;38.57;95717.19;4985937;28;20048;-69
2023/06/15 01:18:20;;;;;;;3.22;2.70;;;;;;;12.88;38.41;95725.22;5002129;28;20548;-69
2023/06/15 01:20:48;;;;;;;4.65;2.78;;;;;;;12.84;38.97;95728.44;5020094;28;20025;-69
2023/06/15 01:23:32;;;;;;;4.13;2.83;;;;;;;12.89;38.44;95729.53;4985869;28;20044;-69
2023/06/15 01:26:05;;;;;;;3.17;2.60;;;;;;;12.83;37.89;95721.47;5019575;28;20029;-69
2023/06/15 01:28:30;;;;;;;5.55;2.70;;;;;;;12.86;38.25;95718.41;5002444;28;20136;-69
2023/06/15 01:30:56;;;;;;;3.05;2.58;;;;;;;12.92;38.08;95718.47;5001985;28;20418;-69
2023/06/15 01:33:22;;;;;;;3.67;2.80;;;;;;;12.93;38.25;95717.44;5002390;28;20163;-69
2023/06/15 01:35:47;;;;;;;3.42;2.50;;;;;;;12.99;38.23;95720.41;5019860;28;20442;-69
2023/06/15 01:38:13;;;;;;;4.05;3.00;;;;;;;12.90;38.73;95720.53;5018761;28;20033;-69
2023/06/15 01:40:40;;;;;;;3.42;2.60;;;;;;;12.87;38.66;95714.72;5002139;28;20540;-69
2023/06/15 01:43:08;;;;;;;4.20;2.77;;;;;;;12.89;38.52;95718.84;5001793;28;20510;-69
2023/06/15 01:45:34;;;;;;;9.70;2.75;;;;;;;12.91;37.89;95716.00;5002187;28;20467;-69
2023/06/15 01:47:59;;;;;;;5.15;2.70;;;;;;;12.95;38.23;95711.09;4985437;28;20123;-69
2023/06/15 01:50:25;;;;;;;2.90;2.60;;;;;;;12.89;38.39;95708.16;5019470;28;20287;-69
2023/06/15 01:52:50;;;;;;;3.38;2.80;;;;;;;13.03;38.45;95719.03;4984836;28;20475;-69
2023/06/15 01:55:16;;;;;;;3.65;2.55;;;;;;;13.07;38.19;95714.94;5001626;28;20087;-69
2023/06/15 01:57:41;;;;;;;4.38;2.72;;;;;;;12.99;38.48;95720.41;5019686;28;20454;-69
2023/06/15 02:00:09;;;;;;;6.00;2.97;;;;;;;13.03;38.28;95716.34;5019523;28;20115;-69
2023/06/15 02:02:34;;;;;;;3.95;2.50;;;;;;;13.03;38.64;95716.34;5018806;28;20049;-69
2023/06/15 02:05:02;;;;;;;5.30;2.83;;;;;;;12.95;38.81;95711.09;5019394;28;20083;-69
2023/06/15 02:07:28;;;;;;;4.45;2.72;;;;;;;12.99;38.50;95712.38;5018997;28;20292;-69
2023/06/15 02:09:53;;;;;;;3.45;3.00;;;;;;;12.95;38.13;95709.25;5019718;28;20486;-69
2023/06/15 02:12:18;;;;;;;4.32;2.72;;;;;;;12.98;38.77;95716.06;5019586;28;20589;-69
2023/06/15 02:14:44;;;;;;;5.05;3.22;;;;;;;13.07;39.00;95712.28;5019045;28;20052;-69
2023/06/15 02:17:10;;;;;;;4.85;3.03;;;;;;;13.04;38.37;95716.16;5019208;28;20036;-69
2023/06/15 02:19:36;;;;;;;4.75;2.85;;;;;;;13.03;38.07;95709.16;5019448;28;20053;-69
2023/06/15 02:22:01;;;;;;;5.80;3.10;;;;;;;13.02;38.72;95712.84;5019298;28;20041;-69
2023/06/15 02:24:27;;;;;;;3.30;3.00;;;;;;;12.93;38.52;95722.78;5002274;28;20036;-69
2023/06/15 02:26:52;;;;;;;5.07;2.90;;;;;;;13.07;38.49;95719.47;5018986;28;20033;-69
2023/06/15 02:29:18;;;;;;;5.07;2.97;;;;;;;13.07;38.40;95714.94;5020099;28;20036;-69
2023/06/15 02:31:43;;;;;;;4.03;3.15;;;;;;;13.02;37.71;95714.72;5018550;28;20056;-69
2023/06/15 02:34:08;;;;;;;4.82;2.92;;;;;;;13.03;38.41;95721.69;5020729;28;20060;-70
2023/06/15 02:36:34;;;;;;;3.30;3.00;;;;;;;12.99;38.73;95710.53;5023093;28;20029;-69
2023/06/15 02:39:00;;;;;;;4.10;2.97;;;;;;;13.01;38.54;95721.03;5022688;28;20037;-69
2023/06/15 02:41:26;;;;;;;4.13;3.00;;;;;;;12.90;38.52;95725.88;5005735;28;20321;-69
2023/06/15 02:43:52;;;;;;;5.88;3.00;;;;;;;12.90;38.39;95725.88;5022782;28;20048;-70
2023/06/15 02:46:17;;;;;;;3.53;3.10;;;;;;;12.95;38.69;95721.78;5022209;28;20037;-69
2023/06/15 02:48:44;;;;;;;3.22;2.70;;;;;;;13.01;38.72;95721.03;5022816;28;20386;-69
2023/06/15 02:51:09;;;;;;;5.25;2.90;;;;;;;12.98;38.11;95719.56;5022461;28;20076;-69
2023/06/15 02:53:35;;;;;;;3.35;2.92;;;;;;;12.97;38.60;95727.75;5005000;28;20045;-69
2023/06/15 02:56:04;;;;;;;3.20;2.90;;;;;;;12.97;38.30;95719.75;5022013;28;20095;-69
2023/06/15 02:58:32;;;;;;;6.13;3.13;;;;;;;13.00;38.43;95722.06;5022795;28;20039;-69
2023/06/15 03:01:00;;;;;;;5.20;2.95;;;;;;;12.94;37.89;95723.63;5021900;28;20044;-69
2023/06/15 03:03:27;;;;;;;3.67;2.92;;;;;;;12.81;37.91;95732.34;5000761;28;20045;-69
2023/06/15 03:05:54;;;;;;;3.97;2.90;;;;;;;12.78;38.32;95728.19;5021729;28;20052;-69
2023/06/15 03:08:20;;;;;;;5.65;2.95;;;;;;;12.76;39.36;95726.75;5022405;28;20441;-69
2023/06/15 03:10:45;;;;;;;3.63;2.80;;;;;;;12.72;38.58;95725.47;5022047;28;20033;-69
2023/06/15 03:13:11;;;;;;;4.35;3.00;;;;;;;12.66;38.66;95724.38;5022515;28;20040;-69
2023/06/15 03:15:37;;;;;;;3.95;2.97;;;;;;;12.67;38.81;95726.03;5021719;28;20148;-69
2023/06/15 03:18:04;;;;;;;7.07;3.10;;;;;;;12.63;38.93;95725.59;5021160;28;20095;-68
2023/06/15 03:20:32;;;;;;;4.60;3.15;;;;;;;12.52;39.10;95728.75;5022105;28;20486;-69
2023/06/15 03:23:00;;;;;;;3.65;2.90;;;;;;;12.60;38.39;95731.28;5022454;28;20034;-69
2023/06/15 03:25:26;;;;;;;4.82;2.90;;;;;;;12.58;39.02;95730.63;5003633;28;20112;-69
2023/06/15 03:27:59;;;;;;;4.68;3.03;;;;;;;12.40;39.30;95728.38;5022177;28;20128;-69
2023/06/15 03:30:24;;;;;;;4.70;2.60;;;;;;;12.54;40.14;95726.69;5021038;28;20037;-69
2023/06/15 03:32:50;;;;;;;6.43;3.30;;;;;;;12.62;39.19;95731.91;5022008;28;20017;-69
2023/06/15 03:35:15;;;;;;;4.22;3.00;;;;;;;12.76;39.31;95737.44;5021755;28;20422;-69
2023/06/15 03:37:40;;;;;;;6.35;3.25;;;;;;;12.78;39.12;95743.38;5022237;28;20041;-69
2023/06/15 03:40:07;;;;;;;4.97;3.00;;;;;;;12.86;39.09;95743.31;5021434;28;20656;-69
2023/06/15 03:42:33;;;;;;;4.80;3.03;;;;;;;12.88;39.15;95748.44;5021123;28;20041;-69
2023/06/15 03:44:58;;;;;;;5.13;3.10;;;;;;;12.91;39.16;95746.22;5021415;28;20033;-69
2023/06/15 03:47:25;;;;;;;4.45;3.10;;;;;;;13.02;38.90;95742.25;5021635;28;20048;-69
2023/06/15 03:49:50;;;;;;;4.38;2.95;;;;;;;13.09;39.09;95755.66;5021435;28;20025;-69
2023/06/15 03:52:16;;;;;;;3.42;2.92;;;;;;;13.08;38.95;95748.66;5021591;28;20624;-69
2023/06/15 03:54:41;;;;;;;3.85;3.13;;;;;;;13.18;38.69;95754.53;5021021;28;20415;-69
2023/06/15 03:57:06;;;;;;;4.30;3.22;;;;;;;13.19;38.70;95755.34;5021797;28;20033;-69
2023/06/15 03:59:32;;;;;;;5.18;3.20;;;;;;;13.17;38.08;95758.22;5021350;28;20708;-69
2023/06/15 04:01:57;;;;;;;2.97;2.67;;;;;;;13.27;38.31;95757.91;5020751;28;20506;-69
2023/06/15 04:04:23;;;;;;;3.85;3.13;;;;;;;13.40;38.55;95759.84;5020263;28;20037;-69
2023/06/15 04:06:52;;;;;;;3.83;2.80;;;;;;;13.50;38.54;95758.72;5019004;28;20042;-69
2023/06/15 04:09:18;;;;;;;3.42;2.83;;;;;;;13.51;38.38;95769.22;5020908;28;20037;-69
2023/06/15 04:11:44;;;;;;;4.25;2.90;;;;;;;13.50;37.91;95767.53;5004660;28;20409;-69
2023/06/15 04:14:09;;;;;;;4.28;3.00;;;;;;;13.64;38.18;95762.31;5020078;28;20033;-69
2023/06/15 04:16:35;;;;;;;5.18;3.03;;;;;;;13.61;37.73;95760.88;5003830;28;20022;-69
2023/06/15 04:19:00;;;;;;;3.28;2.70;;;;;;;13.74;37.49;95757.47;5020614;28;20045;-69
2023/06/15 04:21:25;;;;;;;3.88;3.00;;;;;;;13.85;37.88;95758.75;5021878;28;20420;-69
2023/06/15 04:23:51;;;;;;;3.70;2.90;;;;;;;13.81;37.43;95757.50;5020560;28;20723;-69
2023/06/15 04:26:17;;;;;;;5.00;2.90;;;;;;;13.88;37.49;95758.41;5020201;28;20457;-69
2023/06/15 04:28:45;;;;;;;3.90;2.97;;;;;;;13.94;37.58;95757.59;5002810;28;20190;-68
2023/06/15 04:31:12;;;;;;;4.72;3.15;;;;;;;14.05;37.39;95752.75;5019832;28;20092;-69
2023/06/15 04:33:42;;;;;;;3.00;2.70;;;;;;;13.93;37.07;95766.66;5001616;28;20029;-68
2023/06/15 04:36:12;;;;;;;5.47;2.83;;;;;;;14.10;37.05;95771.72;5002585;28;20041;-69
2023/06/15 04:38:46;;;;;;;4.68;3.08;;;;;;;14.20;36.52;95774.03;5003813;28;20040;-68
2023/06/15 04:41:16;;;;;;;4.85;2.92;;;;;;;14.35;37.01;95765.88;5019245;28;20098;-68
2023/06/15 04:43:42;;;;;;;3.88;2.72;;;;;;;14.51;36.61;95770.06;5020467;28;20157;-69
2023/06/15 04:46:07;;;;;;;6.88;2.80;;;;;;;14.61;36.59;95771.56;5019791;28;20108;-69
2023/06/15 04:48:33;;;;;;;2.88;2.63;;;;;;;14.65;35.78;95778.16;5019266;28;20038;-69
2023/06/15 04:50:59;;;;;;;5.05;2.97;;;;;;;14.81;36.35;95774.31;5019098;28;20041;-69
2023/06/15 04:53:24;;;;;;;3.85;2.75;;;;;;;14.89;36.39;95776.00;5021114;28;20036;-69
2023/06/15 04:55:50;;;;;;;4.50;3.08;;;;;;;15.03;35.88;95783.03;5001736;28;20033;-69
2023/06/15 04:58:15;;;;;;;3.45;2.85;;;;;;;15.12;34.99;95780.19;5018504;28;20029;-69
2023/06/15 05:00:41;;;;;;;4.63;2.83;;;;;;;15.24;36.07;95787.41;5002596;28;20025;-69
2023/06/15 05:03:06;;;;;;;3.70;2.95;;;;;;;15.38;35.72;95784.78;5002122;28;20212;-70
2023/06/15 05:05:32;;;;;;;4.78;3.03;;;;;;;15.41;34.70;95784.38;5020689;28;20231;-70
2023/06/15 05:07:57;;;;;;;5.60;2.80;;;;;;;15.48;35.37;95787.88;5020293;28;20446;-70
2023/06/15 05:10:23;;;;;;;4.47;2.75;;;;;;;15.68;35.03;95786.25;5002998;28;20332;-70
2023/06/15 05:12:48;;;;;;;5.00;2.70;;;;;;;15.82;34.56;95789.75;5020227;28;20043;-70
2023/06/15 05:15:14;;;;;;;6.63;2.90;;;;;;;15.85;34.38;95787.47;5019700;28;20041;-70
2023/06/15 05:17:40;;;;;;;5.53;2.75;;;;;;;16.07;34.83;95789.94;5019912;28;20346;-70
2023/06/15 05:20:05;;;;;;;9.98;3.15;;;;;;;16.18;34.94;95791.16;5019134;28;20037;-70
2023/06/15 05:22:31;;;;;;;4.47;2.80;;;;;;;16.37;34.32;95794.03;5000714;28;20438;-70
2023/06/15 05:24:56;;;;;;;5.32;2.80;;;;;;;16.43;34.08;95789.69;5020601;28;20147;-70
2023/06/15 05:27:22;;;;;;;3.90;2.70;;;;;;;16.56;33.82;95789.66;5001184;28;20033;-70
2023/06/15 05:29:47;;;;;;;3.42;2.65;;;;;;;16.73;33.61;95792.66;5020487;28;20377;-70
2023/06/15 05:32:13;;;;;;;7.72;2.78;;;;;;;16.79;32.05;95796.38;5019867;28;20034;-70
2023/06/15 05:34:38;;;;;;;3.17;2.88;;;;;;;16.97;33.27;95801.06;5019230;28;20443;-70
2023/06/15 05:37:04;;;;;;;4.00;2.60;;;;;;;17.00;33.95;95794.44;5001866;28;20375;-70
2023/06/15 05:39:29;;;;;;;4.28;2.85;;;;;;;17.16;33.45;95795.81;5019499;28;20123;-70
2023/06/15 05:41:55;;;;;;;4.25;3.25;;;;;;;17.40;33.26;95801.44;5002121;28;20026;-70
2023/06/15 05:44:20;;;;;;;6.10;4.03;;;;;;;17.37;32.83;95807.28;5017713;28;20034;-70
2023/06/15 05:46:46;;;;;;;6.55;3.58;;;;;;;17.49;32.46;95815.47;5019415;28;20116;-70
2023/06/15 05:49:11;;;;;;;6.07;3.60;;;;;;;17.53;32.23;95811.31;5019883;28;20481;-70
2023/06/15 05:51:36;;;;;;;3.95;2.95;;;;;;;17.65;31.69;95808.75;5001872;28;20600;-70
2023/06/15 05:54:02;;;;;;;8.45;2.90;;;;;;;17.68;31.11;95816.38;5018871;28;20402;-70
2023/06/15 05:56:27;;;;;;;6.63;3.00;;;;;;;17.78;32.00;95814.00;5001995;28;20048;-70
2023/06/15 05:58:53;;;;;;;6.78;2.95;;;;;;;17.81;31.64;95812.75;5018861;28;20262;-70
2023/06/15 06:01:19;;;;;;;4.22;2.90;;;;;;;17.76;31.34;95816.13;5019022;28;20588;-70
2023/06/15 06:03:44;;;;;;;5.68;3.72;;;;;;;17.90;31.46;95821.41;5018471;28;20372;-70
2023/06/15 06:06:10;;;;;;;6.65;3.38;;;;;;;17.93;30.80;95815.59;5019182;28;20022;-70
2023/06/15 06:08:35;;;;;;;4.55;2.80;;;;;;;17.94;30.96;95811.03;5020180;28;20498;-70
2023/06/15 06:11:03;;;;;;;5.35;2.90;;;;;;;18.23;30.87;95823.00;5022723;28;20325;-70
2023/06/15 06:13:29;;;;;;;6.78;2.80;;;;;;;18.33;30.50;95809.00;5022253;28;20064;-70
2023/06/15 06:15:54;;;;;;;6.97;3.22;;;;;;;18.53;30.75;95826.84;5023034;28;20092;-70
2023/06/15 06:18:20;;;;;;;4.82;2.85;;;;;;;18.71;30.68;95820.63;5022855;28;20102;-70
2023/06/15 06:20:45;;;;;;;5.72;3.00;;;;;;;18.69;30.00;95822.72;5021798;28;20037;-70
2023/06/15 06:23:11;;;;;;;5.10;2.72;;;;;;;18.76;29.96;95820.78;5005362;28;20088;-70
2023/06/15 06:25:36;;;;;;;4.03;2.88;;;;;;;18.58;30.63;95818.91;5023567;28;20029;-70
2023/06/15 06:28:01;;;;;;;6.35;2.90;;;;;;;18.67;30.26;95822.16;5022609;28;20397;-70
2023/06/15 06:30:27;;;;;;;5.22;2.85;;;;;;;18.78;30.04;95826.78;5022078;28;20091;-71
2023/06/15 06:32:52;;;;;;;5.68;2.92;;;;;;;18.79;29.15;95824.88;5023498;28;20049;-70
2023/06/15 06:35:18;;;;;;;5.35;2.75;;;;;;;18.94;29.65;95824.53;5022835;28;20033;-70
2023/06/15 06:37:43;;;;;;;3.45;2.83;;;;;;;19.10;29.76;95828.44;5023397;28;20037;-70
2023/06/15 06:40:09;;;;;;;3.40;2.85;;;;;;;19.08;29.85;95831.38;5022480;28;20044;-70
2023/06/15 06:42:34;;;;;;;8.23;3.10;;;;;;;19.15;30.37;95833.16;5003270;28;20103;-70
2023/06/15 06:45:00;;;;;;;3.53;3.00;;;;;;;19.13;29.55;95837.97;5003321;28;20099;-70
2023/06/15 06:47:25;;;;;;;5.68;3.22;;;;;;;19.05;29.45;95834.56;5021253;28;20095;-70
2023/06/15 06:49:52;;;;;;;7.00;2.83;;;;;;;19.33;29.54;95838.56;5020832;28;20095;-70
2023/06/15 06:52:17;;;;;;;5.53;3.00;;;;;;;19.53;28.93;95832.06;5022609;28;20033;-70
2023/06/15 06:54:43;;;;;;;7.00;3.35;;;;;;;19.61;28.18;95832.78;5022276;28;20045;-70
2023/06/15 06:57:08;;;;;;;11.32;5.07;;;;;;;19.58;28.93;95834.88;5021884;28;20029;-69
2023/06/15 06:59:34;;;;;;;8.18;4.32;;;;;;;19.85;28.38;95834.47;5021405;28;20037;-69
2023/06/15 07:01:59;;;;;;;5.72;3.22;;;;;;;20.00;28.51;95833.22;5022113;28;20509;-70
2023/06/15 07:04:24;;;;;;;12.32;5.88;;;;;;;19.94;28.05;95840.34;5022558;28;20452;-70
2023/06/15 07:06:50;;;;;;;12.60;4.03;;;;;;;20.18;28.03;95842.28;5020908;28;20041;-70
2023/06/15 07:09:16;;;;;;;4.90;3.33;;;;;;;20.43;27.91;95841.22;5021789;28;20048;-69
2023/06/15 07:11:41;;;;;;;5.25;3.50;;;;;;;20.49;27.80;95845.66;5021593;28;20123;-69
2023/06/15 07:14:07;;;;;;;9.65;5.90;;;;;;;20.52;26.71;95847.91;5021558;28;20030;-70
2023/06/15 07:16:32;;;;;;;12.70;7.07;;;;;;;20.52;26.80;95852.47;5021049;28;20037;-70
2023/06/15 07:18:58;;;;;;;7.07;3.10;;;;;;;20.84;26.36;95844.81;5021799;28;20788;-69
2023/06/15 07:21:23;;;;;;;13.40;9.65;;;;;;;20.54;26.30;95840.41;5019551;28;20688;-69
2023/06/15 07:23:49;;;;;;;6.60;3.80;;;;;;;20.56;27.10;95849.09;5021925;28;20037;-70
2023/06/15 07:26:14;;;;;;;9.43;6.18;;;;;;;20.69;26.30;95847.22;5020815;28;20038;-70
2023/06/15 07:28:40;;;;;;;6.95;3.13;;;;;;;20.72;26.21;95844.88;5001656;28;20717;-70
2023/06/15 07:31:05;;;;;;;11.32;5.18;;;;;;;20.87;26.15;95847.06;5020076;28;20041;-69
2023/06/15 07:33:30;;;;;;;10.15;4.38;;;;;;;21.16;25.71;95837.31;5020382;28;20281;-70
2023/06/15 07:35:56;;;;;;;13.07;8.27;;;;;;;21.07;25.32;95832.28;5020576;28;20071;-70
2023/06/15 07:38:21;;;;;;;10.45;6.22;;;;;;;21.20;25.26;95833.06;5001900;28;20048;-70
2023/06/15 07:40:47;;;;;;;16.33;12.32;;;;;;;20.99;25.62;95827.25;5020829;28;20767;-69
2023/06/15 07:43:12;;;;;;;11.70;7.63;;;;;;;21.11;25.66;95841.56;5020404;28;20103;-70
2023/06/15 07:45:38;;;;;;;10.40;6.13;;;;;;;21.24;25.04;95842.34;5021852;28;20418;-70
2023/06/15 07:48:04;;;;;;;14.48;10.13;;;;;;;21.26;25.46;95834.81;5021769;28;20560;-70
2023/06/15 07:50:30;;;;;;;7.55;5.13;;;;;;;21.55;25.08;95834.81;5002226;28;20053;-70
2023/06/15 07:52:55;;;;;;;12.55;8.15;;;;;;;21.60;24.15;95847.63;5018448;28;20026;-70
2023/06/15 07:55:21;;;;;;;13.35;9.27;;;;;;;21.58;24.53;95847.88;5021017;28;20048;-70
2023/06/15 07:57:46;;;;;;;25.92;15.15;;;;;;;21.60;24.50;95845.75;5021835;28;20342;-71
2023/06/15 08:00:12;;;;;;;7.30;5.25;;;;;;;21.77;24.38;95839.53;5003087;28;20587;-71
2023/06/15 08:02:37;;;;;;;19.08;11.20;;;;;;;21.86;23.96;95843.47;5018065;28;20378;-71
2023/06/15 08:05:03;;;;;;;18.58;9.57;;;;;;;21.91;23.83;95842.78;5020424;28;20029;-71
2023/06/15 08:07:29;;;;;;;17.63;8.20;;;;;;;21.79;24.12;95847.44;5019817;28;20038;-70
2023/06/15 08:09:54;;;;;;;7.22;4.32;;;;;;;22.37;23.85;95841.84;5019380;28;20550;-71
2023/06/15 08:12:20;;;;;;;17.60;12.07;;;;;;;22.18;23.63;95844.84;5018777;28;20438;-71
2023/06/15 08:14:45;;;;;;;12.40;7.15;;;;;;;22.25;23.38;95840.06;5019659;28;20042;-71
2023/06/15 08:17:11;;;;;;;13.63;8.02;;;;;;;22.46;23.10;95836.81;5016810;28;20456;-72
2023/06/15 08:19:36;;;;;;;9.48;5.43;;;;;;;22.38;23.31;95829.94;5020413;28;20334;-71
2023/06/15 08:22:02;;;;;;;19.10;12.77;;;;;;;22.48;22.96;95832.81;5019881;28;20033;-71
2023/06/15 08:24:28;;;;;;;21.08;12.80;;;;;;;22.47;22.15;95833.84;5019407;28;20041;-71
2023/06/15 08:26:54;;;;;;;13.38;7.65;;;;;;;22.52;22.41;95836.66;5020119;28;20037;-71
2023/06/15 08:29:19;;;;;;;27.58;20.00;;;;;;;22.48;23.12;95837.41;5020806;28;20482;-71
2023/06/15 08:31:45;;;;;;;8.02;5.18;;;;;;;22.64;22.83;95833.03;5020454;28;20544;-70
2023/06/15 08:34:10;;;;;;;10.20;6.30;;;;;;;22.97;22.92;95835.91;5020678;28;20029;-71
2023/06/15 08:36:37;;;;;;;12.63;9.85;;;;;;;22.83;22.14;95832.72;5018344;28;20040;-71
2023/06/15 08:39:03;;;;;;;18.52;12.27;;;;;;;22.97;22.06;95838.59;5016700;28;20143;-70
2023/06/15 08:41:29;;;;;;;16.85;11.25;;;;;;;22.62;21.76;95832.47;5020458;28;20044;-70
2023/06/15 08:43:54;;;;;;;16.48;10.65;;;;;;;22.44;22.33;95839.78;5018910;28;20037;-71
2023/06/15 08:46:21;;;;;;;12.50;6.63;;;;;;;22.25;22.64;95839.22;5016801;28;20037;-71
2023/06/15 08:48:46;;;;;;;14.37;10.07;;;;;;;22.15;21.40;95834.47;4999725;28;20395;-72
2023/06/15 08:51:12;;;;;;;9.90;5.68;;;;;;;22.20;21.39;95839.16;5019833;28;20041;-72
2023/06/15 08:53:40;;;;;;;9.40;4.70;;;;;;;22.18;21.49;95839.41;5017952;28;20026;-72
2023/06/15 09:08:01;;;;;;;8.02;3.80;;;;;;;23.65;21.15;95834.72;3341003;26;20094;-94
2023/06/15 09:10:26;;;;;;;19.27;14.35;;;;;;;23.48;21.64;95832.13;4984017;28;20646;-94
2023/06/15 09:12:55;;;;;;;26.63;19.70;;;;;;;23.63;21.35;95839.59;4985763;28;20029;-93
2023/06/15 09:15:25;;;;;;;15.30;12.38;;;;;;;23.56;20.89;95831.66;4986222;28;20103;-93
2023/06/15 09:17:55;;;;;;;19.00;13.38;;;;;;;23.94;20.88;95846.13;4969861;28;20034;-93
2023/06/15 09:20:22;;;;;;;7.97;5.18;;;;;;;24.35;20.64;95842.13;4981012;28;20564;-94
2023/06/15 09:22:47;;;;;;;17.05;7.30;;;;;;;24.85;19.98;95836.44;4988150;28;20227;-94
2023/06/15 09:25:16;;;;;;;5.32;3.33;;;;;;;25.28;18.92;95838.22;4986570;28;20397;-94
2023/06/15 09:27:51;;;;;;;13.60;9.80;;;;;;;25.52;19.09;95835.06;4991030;28;20597;-95
2023/06/15 09:30:17;;;;;;;8.02;5.10;;;;;;;25.97;18.87;95825.25;4972206;28;20088;-96
2023/06/15 09:32:43;;;;;;;5.17;3.70;;;;;;;26.40;18.15;95829.59;4987436;28;20493;-94
2023/06/15 09:35:08;;;;;;;9.60;7.80;;;;;;;26.47;18.05;95829.31;4984778;28;20551;-96
2023/06/15 09:37:34;;;;;;;11.57;3.77;;;;;;;26.36;17.20;95832.06;4962479;28;20037;-94
2023/06/15 09:40:00;;;;;;;16.70;9.27;;;;;;;25.64;19.03;95832.88;4987004;28;20038;-95
2023/06/15 09:42:26;;;;;;;14.52;8.02;;;;;;;25.61;18.50;95825.25;4989486;28;20639;-96
2023/06/15 09:48:21;;;;;;;11.68;6.28;;;;;;;26.43;17.55;95828.22;5028800;28;20052;-95
2023/06/15 09:51:38;;;;;;;11.60;7.68;;;;;;;26.52;17.82;95821.13;5002518;28;20038;-95
2023/06/15 09:57:34;;;;;;;12.77;9.13;;;;;;;27.38;16.39;95823.00;5024584;28;20037;-95
2023/06/15 10:02:43;;;;;;;12.27;7.07;;;;;;;27.50;16.27;95825.38;4988092;28;20042;-74
2023/06/15 10:05:13;;;;;;;14.03;10.40;;;;;;;27.22;16.81;95825.00;4981720;28;20030;-75
2023/06/15 10:07:38;;;;;;;7.15;2.90;;;;;;;27.36;15.50;95818.91;4998900;28;20045;-75
2023/06/15 10:13:47;;;;;;;5.05;3.40;;;;;;;27.80;15.20;95816.47;4994287;28;20175;-74
2023/06/15 10:16:15;;;;;;;12.00;5.65;;;;;;;28.01;15.44;95814.38;4986719;28;20410;-74
2023/06/15 10:18:41;;;;;;;7.22;3.30;;;;;;;27.99;14.91;95822.03;4976687;28;20034;-75
2023/06/15 10:21:07;;;;;;;7.47;3.50;;;;;;;27.90;14.40;95816.34;4997832;28;20076;-75
2023/06/15 10:23:32;;;;;;;8.60;5.40;;;;;;;27.73;14.86;95814.06;4985104;28;20030;-75
2023/06/15 10:25:58;;;;;;;9.43;7.87;;;;;;;27.28;15.48;95823.06;4987513;28;20548;-75
2023/06/15 10:28:24;;;;;;;8.60;2.70;;;;;;;26.24;15.05;95815.19;4998725;28;20168;-75
2023/06/15 10:31:16;;;;;;;9.60;7.53;;;;;;;25.96;15.97;95812.72;4998929;28;20088;-75
2023/06/15 10:33:51;;;;;;;9.00;3.05;;;;;;;26.90;15.27;95809.81;4984355;28;20505;-74
2023/06/15 10:36:27;;;;;;;11.75;7.93;;;;;;;26.87;15.98;95813.94;4971170;28;20485;-74
2023/06/15 10:39:19;;;;;;;10.53;6.57;;;;;;;27.58;15.07;95812.19;4981729;28;20377;-73
2023/06/15 10:41:45;;;;;;;10.65;8.43;;;;;;;27.90;15.65;95803.50;4986934;28;20039;-74
2023/06/15 10:44:13;;;;;;;5.70;3.07;;;;;;;27.86;14.01;95807.94;4992268;28;20037;-74
2023/06/15 10:46:39;;;;;;;11.68;9.88;;;;;;;28.20;15.22;95811.75;4997829;28;20112;-76
2023/06/15 10:49:08;;;;;;;5.37;3.60;;;;;;;28.69;14.33;95814.56;4998838;28;20374;-75
2023/06/15 10:51:40;;;;;;;8.50;6.18;;;;;;;28.99;14.55;95809.81;4985179;28;20052;-74
2023/06/15 10:54:22;;;;;;;4.95;3.00;;;;;;;28.60;13.70;95814.38;4998385;28;20053;-74
2023/06/15 10:56:53;;;;;;;8.45;5.70;;;;;;;28.51;14.20;95810.63;4995214;28;20038;-74
2023/06/15 10:59:41;;;;;;;8.35;4.15;;;;;;;29.04;15.25;95815.25;5002358;28;20121;-75
2023/06/15 11:02:28;;;;;;;8.88;6.80;;;;;;;29.02;13.50;95813.88;5001095;28;20038;-75
2023/06/15 11:05:12;;;;;;;9.23;2.95;;;;;;;28.76;14.46;95809.53;5000625;28;20042;-75
2023/06/15 11:07:43;;;;;;;7.75;4.80;;;;;;;28.53;13.90;95808.41;4990328;28;20502;-75
2023/06/15 11:10:16;;;;;;;5.15;2.60;;;;;;;28.89;13.46;95813.50;4998750;28;20303;-75
2023/06/15 11:12:43;;;;;;;5.10;2.95;;;;;;;28.60;12.57;95817.09;5001400;28;20565;-75
2023/06/15 11:15:09;;;;;;;7.28;4.88;;;;;;;28.96;13.95;95806.84;5000258;28;20040;-74
2023/06/15 11:17:57;;;;;;;6.72;2.85;;;;;;;29.18;14.00;95809.06;5000415;28;20038;-74
2023/06/15 11:20:44;;;;;;;5.45;4.38;;;;;;;28.94;13.11;95809.88;4996963;28;20627;-75
2023/06/15 11:23:10;;;;;;;4.45;3.08;;;;;;;28.76;13.30;95812.28;4996947;28;20038;-75
2023/06/15 11:25:37;;;;;;;6.55;3.38;;;;;;;28.71;13.54;95809.59;5002488;28;20030;-75
2023/06/15 11:28:03;;;;;;;5.82;2.80;;;;;;;28.48;13.76;95811.22;5000481;28;20506;-75
2023/06/15 11:30:28;;;;;;;3.83;2.90;;;;;;;28.61;13.19;95818.72;5000561;28;20167;-75
2023/06/15 11:32:54;;;;;;;8.20;3.27;;;;;;;28.31;14.15;95815.19;5001637;28;20442;-75
2023/06/15 11:35:19;;;;;;;3.07;2.60;;;;;;;27.80;14.25;95808.25;5001887;28;20033;-75
2023/06/15 11:37:45;;;;;;;5.83;3.27;;;;;;;27.90;14.79;95802.69;5000789;28;20288;-75
2023/06/15 11:40:11;;;;;;;5.07;3.43;;;;;;;27.92;14.43;95797.75;5000289;28;20033;-75
2023/06/15 11:42:36;;;;;;;7.85;2.70;;;;;;;28.17;14.11;95806.84;4998683;28;20296;-75
2023/06/15 11:45:02;;;;;;;5.17;2.80;;;;;;;28.27;14.54;95804.03;4999064;28;20640;-74
2023/06/15 11:47:33;;;;;;;7.30;3.47;;;;;;;28.48;14.86;95798.31;5000605;28;20498;-74
2023/06/15 11:49:58;;;;;;;6.80;4.43;;;;;;;28.07;15.74;95785.06;4988829;28;20324;-75
2023/06/15 11:52:23;;;;;;;5.27;3.47;;;;;;;28.93;14.70;95789.88;4986025;28;20041;-74
2023/06/15 11:54:49;;;;;;;5.40;3.57;;;;;;;29.07;14.56;95786.44;5000850;28;20030;-74